sensor_id;sensor_type;location;lat;lon;timestamp;P1;durP1;ratioP1;P2;durP2;ratioP2
41719;SDS011;27405;53.316;-6.294;2023-01-16T00:00:51;57.13;;;26.00;;
41719;SDS011;27405;53.316;-6.294;2023-01-16T00:03:17;46.03;;;23.17;;
41719;SDS011;27405;53.316;-6.294;2023-01-16T00:05:43;37.65;;;19.65;;
41719;SDS011;27405;53.316;-6.294;2023-01-16T00:08:09;42.15;;;19.92;;
41719;SDS011;27405;53.316;-6.294;2023-01-16T00:10:35;40.90;;;19.25;;
41719;SDS011;27405;53.316;-6.294;2023-01-16T00:13:00;36.17;;;18.33;;
41719;SDS011;27405;53.316;-6.294;2023-01-16T00:15:26;34.63;;;16.48;;
41719;SDS011;27405;53.316;-6.294;2023-01-16T00:17:52;29.38;;;13.88;;
41719;SDS011;27405;53.316;-6.294;2023-01-16T00:20:18;28.65;;;13.15;;
41719;SDS011;27405;53.316;-6.294;2023-01-16T00:22:44;27.92;;;13.73;;
41719;SDS011;27405;53.316;-6.294;2023-01-16T00:25:09;23.90;;;12.73;;
41719;SDS011;27405;53.316;-6.294;2023-01-16T00:27:35;24.83;;;12.93;;
41719;SDS011;27405;53.316;-6.294;2023-01-16T00:30:01;26.40;;;12.30;;
41719;SDS011;27405;53.316;-6.294;2023-01-16T00:32:28;24.88;;;12.27;;
41719;SDS011;27405;53.316;-6.294;2023-01-16T00:34:53;23.25;;;11.60;;
41719;SDS011;27405;53.316;-6.294;2023-01-16T00:37:19;22.08;;;10.98;;
41719;SDS011;27405;53.316;-6.294;2023-01-16T00:39:45;29.33;;;12.00;;
41719;SDS011;27405;53.316;-6.294;2023-01-16T00:42:10;25.25;;;11.25;;
41719;SDS011;27405;53.316;-6.294;2023-01-16T00:44:36;27.80;;;10.85;;
41719;SDS011;27405;53.316;-6.294;2023-01-16T00:47:02;25.08;;;10.70;;
41719;SDS011;27405;53.316;-6.294;2023-01-16T00:49:28;24.70;;;10.18;;
41719;SDS011;27405;53.316;-6.294;2023-01-16T00:51:54;23.20;;;9.90;;
41719;SDS011;27405;53.316;-6.294;2023-01-16T00:54:20;23.00;;;10.93;;
41719;SDS011;27405;53.316;-6.294;2023-01-16T00:56:46;24.73;;;11.18;;
41719;SDS011;27405;53.316;-6.294;2023-01-16T00:59:11;27.05;;;11.25;;
41719;SDS011;27405;53.316;-6.294;2023-01-16T01:01:37;26.15;;;10.90;;
41719;SDS011;27405;53.316;-6.294;2023-01-16T01:04:04;27.10;;;11.25;;
41719;SDS011;27405;53.316;-6.294;2023-01-16T01:06:30;24.98;;;11.15;;
41719;SDS011;27405;53.316;-6.294;2023-01-16T01:08:55;29.08;;;11.52;;
41719;SDS011;27405;53.316;-6.294;2023-01-16T01:11:21;22.08;;;11.00;;
41719;SDS011;27405;53.316;-6.294;2023-01-16T01:13:48;23.13;;;10.57;;
41719;SDS011;27405;53.316;-6.294;2023-01-16T01:16:14;24.27;;;10.80;;
41719;SDS011;27405;53.316;-6.294;2023-01-16T01:18:40;26.60;;;11.25;;
41719;SDS011;27405;53.316;-6.294;2023-01-16T01:21:06;24.73;;;11.35;;
41719;SDS011;27405;53.316;-6.294;2023-01-16T01:23:32;29.77;;;11.80;;
41719;SDS011;27405;53.316;-6.294;2023-01-16T01:25:57;25.63;;;11.98;;
41719;SDS011;27405;53.316;-6.294;2023-01-16T01:28:24;27.30;;;12.82;;
41719;SDS011;27405;53.316;-6.294;2023-01-16T01:30:49;24.73;;;11.80;;
41719;SDS011;27405;53.316;-6.294;2023-01-16T01:33:15;25.42;;;11.50;;
41719;SDS011;27405;53.316;-6.294;2023-01-16T01:35:41;27.10;;;11.63;;
41719;SDS011;27405;53.316;-6.294;2023-01-16T01:38:06;23.80;;;9.95;;
41719;SDS011;27405;53.316;-6.294;2023-01-16T01:40:32;20.20;;;9.45;;
41719;SDS011;27405;53.316;-6.294;2023-01-16T01:42:58;25.35;;;10.65;;
41719;SDS011;27405;53.316;-6.294;2023-01-16T01:45:25;25.27;;;10.35;;
41719;SDS011;27405;53.316;-6.294;2023-01-16T01:47:55;21.10;;;8.90;;
41719;SDS011;27405;53.316;-6.294;2023-01-16T01:55:59;24.63;;;9.80;;
41719;SDS011;27405;53.316;-6.294;2023-01-16T01:58:30;29.70;;;10.27;;
41719;SDS011;27405;53.316;-6.294;2023-01-16T02:00:57;27.33;;;10.60;;
41719;SDS011;27405;53.316;-6.294;2023-01-16T02:03:35;23.95;;;10.50;;
41719;SDS011;27405;53.316;-6.294;2023-01-16T02:06:08;22.48;;;10.13;;
41719;SDS011;27405;53.316;-6.294;2023-01-16T02:08:39;23.02;;;9.25;;
41719;SDS011;27405;53.316;-6.294;2023-01-16T02:11:11;18.55;;;8.65;;
41719;SDS011;27405;53.316;-6.294;2023-01-16T02:13:57;22.30;;;9.10;;
41719;SDS011;27405;53.316;-6.294;2023-01-16T02:16:29;20.70;;;8.43;;
41719;SDS011;27405;53.316;-6.294;2023-01-16T02:19:40;21.92;;;7.93;;
41719;SDS011;27405;53.316;-6.294;2023-01-16T02:30:12;20.08;;;7.90;;
41719;SDS011;27405;53.316;-6.294;2023-01-16T02:40:55;14.10;;;6.78;;
41719;SDS011;27405;53.316;-6.294;2023-01-16T02:46:13;15.45;;;5.78;;
41719;SDS011;27405;53.316;-6.294;2023-01-16T02:48:55;12.98;;;5.50;;
41719;SDS011;27405;53.316;-6.294;2023-01-16T02:54:23;12.30;;;5.07;;
41719;SDS011;27405;53.316;-6.294;2023-01-16T02:57:14;9.68;;;4.60;;
41719;SDS011;27405;53.316;-6.294;2023-01-16T02:59:45;10.20;;;4.47;;
41719;SDS011;27405;53.316;-6.294;2023-01-16T03:02:12;11.30;;;4.28;;
41719;SDS011;27405;53.316;-6.294;2023-01-16T03:07:23;8.63;;;4.10;;
41719;SDS011;27405;53.316;-6.294;2023-01-16T03:23:00;6.82;;;3.30;;
41719;SDS011;27405;53.316;-6.294;2023-01-16T03:25:45;7.00;;;3.20;;
41719;SDS011;27405;53.316;-6.294;2023-01-16T03:28:16;5.15;;;2.92;;
41719;SDS011;27405;53.316;-6.294;2023-01-16T03:36:49;4.10;;;2.75;;
41719;SDS011;27405;53.316;-6.294;2023-01-16T03:39:20;4.18;;;2.58;;
41719;SDS011;27405;53.316;-6.294;2023-01-16T03:41:57;4.75;;;2.58;;
41719;SDS011;27405;53.316;-6.294;2023-01-16T03:44:29;4.45;;;2.45;;
41719;SDS011;27405;53.316;-6.294;2023-01-16T03:47:03;2.90;;;2.17;;
41719;SDS011;27405;53.316;-6.294;2023-01-16T03:49:36;4.00;;;2.33;;
41719;SDS011;27405;53.316;-6.294;2023-01-16T03:52:06;6.82;;;3.00;;
41719;SDS011;27405;53.316;-6.294;2023-01-16T03:54:45;7.53;;;2.85;;
41719;SDS011;27405;53.316;-6.294;2023-01-16T03:57:35;4.28;;;2.85;;
41719;SDS011;27405;53.316;-6.294;2023-01-16T04:00:04;4.82;;;2.72;;
41719;SDS011;27405;53.316;-6.294;2023-01-16T04:05:37;7.60;;;2.92;;
41719;SDS011;27405;53.316;-6.294;2023-01-16T04:08:19;4.88;;;2.50;;
41719;SDS011;27405;53.316;-6.294;2023-01-16T04:10:50;7.32;;;2.58;;
41719;SDS011;27405;53.316;-6.294;2023-01-16T04:13:18;4.45;;;2.50;;
41719;SDS011;27405;53.316;-6.294;2023-01-16T04:15:49;4.78;;;2.67;;
41719;SDS011;27405;53.316;-6.294;2023-01-16T04:18:19;3.95;;;2.03;;
41719;SDS011;27405;53.316;-6.294;2023-01-16T04:20:47;6.85;;;2.03;;
41719;SDS011;27405;53.316;-6.294;2023-01-16T04:23:17;6.15;;;2.40;;
41719;SDS011;27405;53.316;-6.294;2023-01-16T04:25:44;3.88;;;2.00;;
41719;SDS011;27405;53.316;-6.294;2023-01-16T04:28:10;4.63;;;1.85;;
41719;SDS011;27405;53.316;-6.294;2023-01-16T04:30:36;6.22;;;2.00;;
41719;SDS011;27405;53.316;-6.294;2023-01-16T04:33:04;6.43;;;2.47;;
41719;SDS011;27405;53.316;-6.294;2023-01-16T04:35:30;6.25;;;1.90;;
41719;SDS011;27405;53.316;-6.294;2023-01-16T04:37:56;7.78;;;2.67;;
41719;SDS011;27405;53.316;-6.294;2023-01-16T04:40:22;5.63;;;1.98;;
41719;SDS011;27405;53.316;-6.294;2023-01-16T04:42:48;4.20;;;1.90;;
41719;SDS011;27405;53.316;-6.294;2023-01-16T04:45:14;5.38;;;1.90;;
41719;SDS011;27405;53.316;-6.294;2023-01-16T04:47:44;8.05;;;1.85;;
41719;SDS011;27405;53.316;-6.294;2023-01-16T04:50:11;6.00;;;1.40;;
41719;SDS011;27405;53.316;-6.294;2023-01-16T04:52:36;6.88;;;2.20;;
41719;SDS011;27405;53.316;-6.294;2023-01-16T04:55:02;3.58;;;1.58;;
41719;SDS011;27405;53.316;-6.294;2023-01-16T04:57:28;9.07;;;1.70;;
41719;SDS011;27405;53.316;-6.294;2023-01-16T04:59:54;5.68;;;1.40;;
41719;SDS011;27405;53.316;-6.294;2023-01-16T05:02:19;8.18;;;1.70;;
41719;SDS011;27405;53.316;-6.294;2023-01-16T05:04:45;7.07;;;1.42;;
41719;SDS011;27405;53.316;-6.294;2023-01-16T05:07:11;5.35;;;1.38;;
41719;SDS011;27405;53.316;-6.294;2023-01-16T05:09:36;7.13;;;1.42;;
41719;SDS011;27405;53.316;-6.294;2023-01-16T05:12:02;6.57;;;1.50;;
41719;SDS011;27405;53.316;-6.294;2023-01-16T05:14:28;7.78;;;1.73;;
41719;SDS011;27405;53.316;-6.294;2023-01-16T05:16:53;4.28;;;1.40;;
41719;SDS011;27405;53.316;-6.294;2023-01-16T05:19:19;10.10;;;1.92;;
41719;SDS011;27405;53.316;-6.294;2023-01-16T05:21:45;3.65;;;1.63;;
41719;SDS011;27405;53.316;-6.294;2023-01-16T05:24:10;8.27;;;1.67;;
41719;SDS011;27405;53.316;-6.294;2023-01-16T05:26:36;11.13;;;2.13;;
41719;SDS011;27405;53.316;-6.294;2023-01-16T05:29:02;8.25;;;2.03;;
41719;SDS011;27405;53.316;-6.294;2023-01-16T05:31:27;8.25;;;2.50;;
41719;SDS011;27405;53.316;-6.294;2023-01-16T05:33:53;8.90;;;2.13;;
41719;SDS011;27405;53.316;-6.294;2023-01-16T05:36:19;6.07;;;2.10;;
41719;SDS011;27405;53.316;-6.294;2023-01-16T05:38:45;6.05;;;2.00;;
41719;SDS011;27405;53.316;-6.294;2023-01-16T05:41:11;5.95;;;1.90;;
41719;SDS011;27405;53.316;-6.294;2023-01-16T05:43:37;6.97;;;1.95;;
41719;SDS011;27405;53.316;-6.294;2023-01-16T05:46:03;9.75;;;2.38;;
41719;SDS011;27405;53.316;-6.294;2023-01-16T05:48:29;10.38;;;2.33;;
41719;SDS011;27405;53.316;-6.294;2023-01-16T05:50:57;10.95;;;2.22;;
41719;SDS011;27405;53.316;-6.294;2023-01-16T05:53:24;5.88;;;2.00;;
41719;SDS011;27405;53.316;-6.294;2023-01-16T05:55:53;5.50;;;1.60;;
41719;SDS011;27405;53.316;-6.294;2023-01-16T05:58:19;6.88;;;2.13;;
41719;SDS011;27405;53.316;-6.294;2023-01-16T06:00:44;8.60;;;2.72;;
41719;SDS011;27405;53.316;-6.294;2023-01-16T06:03:10;8.82;;;2.30;;
41719;SDS011;27405;53.316;-6.294;2023-01-16T06:05:36;8.30;;;2.33;;
41719;SDS011;27405;53.316;-6.294;2023-01-16T06:08:02;5.88;;;1.95;;
41719;SDS011;27405;53.316;-6.294;2023-01-16T06:10:28;10.90;;;2.40;;
41719;SDS011;27405;53.316;-6.294;2023-01-16T06:12:53;8.75;;;2.50;;
41719;SDS011;27405;53.316;-6.294;2023-01-16T06:15:20;8.30;;;2.30;;
41719;SDS011;27405;53.316;-6.294;2023-01-16T06:17:45;7.38;;;2.22;;
41719;SDS011;27405;53.316;-6.294;2023-01-16T06:20:11;10.18;;;2.33;;
41719;SDS011;27405;53.316;-6.294;2023-01-16T06:22:37;9.95;;;2.70;;
41719;SDS011;27405;53.316;-6.294;2023-01-16T06:25:03;8.25;;;2.00;;
41719;SDS011;27405;53.316;-6.294;2023-01-16T06:27:29;9.27;;;2.50;;
41719;SDS011;27405;53.316;-6.294;2023-01-16T06:29:57;6.03;;;2.10;;
41719;SDS011;27405;53.316;-6.294;2023-01-16T06:32:23;9.88;;;2.55;;
41719;SDS011;27405;53.316;-6.294;2023-01-16T06:34:48;8.65;;;2.35;;
41719;SDS011;27405;53.316;-6.294;2023-01-16T06:37:14;7.70;;;2.40;;
41719;SDS011;27405;53.316;-6.294;2023-01-16T06:39:40;8.07;;;2.10;;
41719;SDS011;27405;53.316;-6.294;2023-01-16T06:42:05;9.27;;;2.22;;
41719;SDS011;27405;53.316;-6.294;2023-01-16T06:44:32;7.85;;;2.35;;
41719;SDS011;27405;53.316;-6.294;2023-01-16T06:46:58;8.05;;;2.20;;
41719;SDS011;27405;53.316;-6.294;2023-01-16T06:49:25;6.45;;;2.30;;
41719;SDS011;27405;53.316;-6.294;2023-01-16T06:51:51;8.52;;;2.47;;
41719;SDS011;27405;53.316;-6.294;2023-01-16T06:54:16;9.02;;;2.40;;
41719;SDS011;27405;53.316;-6.294;2023-01-16T06:56:42;8.75;;;2.30;;
41719;SDS011;27405;53.316;-6.294;2023-01-16T06:59:08;8.65;;;2.30;;
41719;SDS011;27405;53.316;-6.294;2023-01-16T07:01:33;7.22;;;2.60;;
41719;SDS011;27405;53.316;-6.294;2023-01-16T07:03:59;8.43;;;3.17;;
41719;SDS011;27405;53.316;-6.294;2023-01-16T07:06:25;13.38;;;3.00;;
41719;SDS011;27405;53.316;-6.294;2023-01-16T07:08:50;7.40;;;2.60;;
41719;SDS011;27405;53.316;-6.294;2023-01-16T07:11:17;8.10;;;3.05;;
41719;SDS011;27405;53.316;-6.294;2023-01-16T07:13:43;11.85;;;2.90;;
41719;SDS011;27405;53.316;-6.294;2023-01-16T07:16:10;11.88;;;3.33;;
41719;SDS011;27405;53.316;-6.294;2023-01-16T07:18:55;9.95;;;2.60;;
41719;SDS011;27405;53.316;-6.294;2023-01-16T07:21:40;11.15;;;2.45;;
41719;SDS011;27405;53.316;-6.294;2023-01-16T07:24:27;7.70;;;2.72;;
41719;SDS011;27405;53.316;-6.294;2023-01-16T07:26:57;8.80;;;2.72;;
41719;SDS011;27405;53.316;-6.294;2023-01-16T07:29:28;7.47;;;2.17;;
41719;SDS011;27405;53.316;-6.294;2023-01-16T07:31:57;5.72;;;2.15;;
41719;SDS011;27405;53.316;-6.294;2023-01-16T07:34:24;12.80;;;3.08;;
41719;SDS011;27405;53.316;-6.294;2023-01-16T07:36:50;10.52;;;2.50;;
41719;SDS011;27405;53.316;-6.294;2023-01-16T07:39:15;6.43;;;2.65;;
41719;SDS011;27405;53.316;-6.294;2023-01-16T07:41:41;12.50;;;2.58;;
41719;SDS011;27405;53.316;-6.294;2023-01-16T07:44:07;12.63;;;2.92;;
41719;SDS011;27405;53.316;-6.294;2023-01-16T07:46:32;6.65;;;2.30;;
41719;SDS011;27405;53.316;-6.294;2023-01-16T07:48:58;10.80;;;2.65;;
41719;SDS011;27405;53.316;-6.294;2023-01-16T07:51:24;9.88;;;2.30;;
41719;SDS011;27405;53.316;-6.294;2023-01-16T07:53:50;10.57;;;2.55;;
41719;SDS011;27405;53.316;-6.294;2023-01-16T07:56:15;12.82;;;3.17;;
41719;SDS011;27405;53.316;-6.294;2023-01-16T07:58:41;9.50;;;3.08;;
41719;SDS011;27405;53.316;-6.294;2023-01-16T08:01:08;11.13;;;3.20;;
41719;SDS011;27405;53.316;-6.294;2023-01-16T08:03:35;13.15;;;3.30;;
41719;SDS011;27405;53.316;-6.294;2023-01-16T08:06:01;13.18;;;3.17;;
41719;SDS011;27405;53.316;-6.294;2023-01-16T08:08:28;11.75;;;3.38;;
41719;SDS011;27405;53.316;-6.294;2023-01-16T08:10:54;9.40;;;2.50;;
41719;SDS011;27405;53.316;-6.294;2023-01-16T08:13:21;12.10;;;2.58;;
41719;SDS011;27405;53.316;-6.294;2023-01-16T08:15:47;13.70;;;3.22;;
41719;SDS011;27405;53.316;-6.294;2023-01-16T08:18:13;13.32;;;3.25;;
41719;SDS011;27405;53.316;-6.294;2023-01-16T08:20:39;12.60;;;3.30;;
41719;SDS011;27405;53.316;-6.294;2023-01-16T08:23:06;11.85;;;3.15;;
41719;SDS011;27405;53.316;-6.294;2023-01-16T08:25:31;14.70;;;3.38;;
41719;SDS011;27405;53.316;-6.294;2023-01-16T08:27:57;9.70;;;2.88;;
41719;SDS011;27405;53.316;-6.294;2023-01-16T08:30:23;13.05;;;3.10;;
41719;SDS011;27405;53.316;-6.294;2023-01-16T08:32:49;15.68;;;3.70;;
41719;SDS011;27405;53.316;-6.294;2023-01-16T08:35:14;13.60;;;3.42;;
41719;SDS011;27405;53.316;-6.294;2023-01-16T08:37:47;13.85;;;3.38;;
41719;SDS011;27405;53.316;-6.294;2023-01-16T08:40:13;15.45;;;3.80;;
41719;SDS011;27405;53.316;-6.294;2023-01-16T08:42:39;25.58;;;4.40;;
41719;SDS011;27405;53.316;-6.294;2023-01-16T08:45:24;14.43;;;3.50;;
41719;SDS011;27405;53.316;-6.294;2023-01-16T08:48:08;13.07;;;3.30;;
41719;SDS011;27405;53.316;-6.294;2023-01-16T08:50:54;9.68;;;3.17;;
41719;SDS011;27405;53.316;-6.294;2023-01-16T08:53:40;11.77;;;3.30;;
41719;SDS011;27405;53.316;-6.294;2023-01-16T08:56:06;8.07;;;2.67;;
41719;SDS011;27405;53.316;-6.294;2023-01-16T08:58:32;10.18;;;3.10;;
41719;SDS011;27405;53.316;-6.294;2023-01-16T09:00:57;11.52;;;2.85;;
41719;SDS011;27405;53.316;-6.294;2023-01-16T09:03:23;10.10;;;3.10;;
41719;SDS011;27405;53.316;-6.294;2023-01-16T09:05:49;12.93;;;3.10;;
41719;SDS011;27405;53.316;-6.294;2023-01-16T09:08:14;10.57;;;2.90;;
41719;SDS011;27405;53.316;-6.294;2023-01-16T09:10:40;14.27;;;2.55;;
41719;SDS011;27405;53.316;-6.294;2023-01-16T09:13:26;10.45;;;2.50;;
41719;SDS011;27405;53.316;-6.294;2023-01-16T09:16:11;8.10;;;2.60;;
41719;SDS011;27405;53.316;-6.294;2023-01-16T09:18:37;12.23;;;2.60;;
41719;SDS011;27405;53.316;-6.294;2023-01-16T09:21:03;10.82;;;2.85;;
41719;SDS011;27405;53.316;-6.294;2023-01-16T09:23:28;10.45;;;2.67;;
41719;SDS011;27405;53.316;-6.294;2023-01-16T09:25:54;6.97;;;2.78;;
41719;SDS011;27405;53.316;-6.294;2023-01-16T09:28:20;11.65;;;3.00;;
41719;SDS011;27405;53.316;-6.294;2023-01-16T09:30:45;10.38;;;2.70;;
41719;SDS011;27405;53.316;-6.294;2023-01-16T09:33:11;12.07;;;3.17;;
41719;SDS011;27405;53.316;-6.294;2023-01-16T09:35:37;12.95;;;2.95;;
41719;SDS011;27405;53.316;-6.294;2023-01-16T09:38:02;8.40;;;2.42;;
41719;SDS011;27405;53.316;-6.294;2023-01-16T09:40:28;9.52;;;2.70;;
41719;SDS011;27405;53.316;-6.294;2023-01-16T09:46:11;14.32;;;3.13;;
41719;SDS011;27405;53.316;-6.294;2023-01-16T09:51:28;10.90;;;2.78;;
41719;SDS011;27405;53.316;-6.294;2023-01-16T09:56:53;12.35;;;2.97;;
41719;SDS011;27405;53.316;-6.294;2023-01-16T09:59:43;12.90;;;3.17;;
41719;SDS011;27405;53.316;-6.294;2023-01-16T10:02:28;15.68;;;3.80;;
41719;SDS011;27405;53.316;-6.294;2023-01-16T10:04:57;13.35;;;3.70;;
41719;SDS011;27405;53.316;-6.294;2023-01-16T10:13:03;15.23;;;3.95;;
41719;SDS011;27405;53.316;-6.294;2023-01-16T10:20:51;15.30;;;5.15;;
41719;SDS011;27405;53.316;-6.294;2023-01-16T10:23:22;16.25;;;4.13;;
41719;SDS011;27405;53.316;-6.294;2023-01-16T10:25:55;11.80;;;3.88;;
41719;SDS011;27405;53.316;-6.294;2023-01-16T10:31:16;12.52;;;3.72;;
41719;SDS011;27405;53.316;-6.294;2023-01-16T10:33:53;13.02;;;3.67;;
41719;SDS011;27405;53.316;-6.294;2023-01-16T10:36:39;10.88;;;3.50;;
41719;SDS011;27405;53.316;-6.294;2023-01-16T10:39:11;10.65;;;3.30;;
41719;SDS011;27405;53.316;-6.294;2023-01-16T10:47:55;13.02;;;3.35;;
41719;SDS011;27405;53.316;-6.294;2023-01-16T10:50:40;10.48;;;3.03;;
41719;SDS011;27405;53.316;-6.294;2023-01-16T10:53:08;10.90;;;2.60;;
41719;SDS011;27405;53.316;-6.294;2023-01-16T10:55:38;9.52;;;2.80;;
41719;SDS011;27405;53.316;-6.294;2023-01-16T10:58:24;12.50;;;2.78;;
41719;SDS011;27405;53.316;-6.294;2023-01-16T11:01:02;8.65;;;2.53;;
41719;SDS011;27405;53.316;-6.294;2023-01-16T11:03:33;6.45;;;2.17;;
41719;SDS011;27405;53.316;-6.294;2023-01-16T11:06:05;11.40;;;2.15;;
41719;SDS011;27405;53.316;-6.294;2023-01-16T11:08:38;11.63;;;2.38;;
41719;SDS011;27405;53.316;-6.294;2023-01-16T11:11:05;11.20;;;2.47;;
41719;SDS011;27405;53.316;-6.294;2023-01-16T11:13:53;12.07;;;2.25;;
41719;SDS011;27405;53.316;-6.294;2023-01-16T11:16:39;10.55;;;2.80;;
41719;SDS011;27405;53.316;-6.294;2023-01-16T11:19:25;9.57;;;2.15;;
41719;SDS011;27405;53.316;-6.294;2023-01-16T11:21:54;9.30;;;2.42;;
41719;SDS011;27405;53.316;-6.294;2023-01-16T11:24:33;10.07;;;2.08;;
41719;SDS011;27405;53.316;-6.294;2023-01-16T11:27:01;5.82;;;1.60;;
41719;SDS011;27405;53.316;-6.294;2023-01-16T11:29:35;7.20;;;1.95;;
41719;SDS011;27405;53.316;-6.294;2023-01-16T11:32:05;9.63;;;2.00;;
41719;SDS011;27405;53.316;-6.294;2023-01-16T11:34:33;6.50;;;2.25;;
41719;SDS011;27405;53.316;-6.294;2023-01-16T11:39:30;7.65;;;2.65;;
41719;SDS011;27405;53.316;-6.294;2023-01-16T11:41:58;8.13;;;2.60;;
41719;SDS011;27405;53.316;-6.294;2023-01-16T11:44:48;12.32;;;2.53;;
41719;SDS011;27405;53.316;-6.294;2023-01-16T11:47:39;12.18;;;3.10;;
41719;SDS011;27405;53.316;-6.294;2023-01-16T11:52:55;13.77;;;3.05;;
41719;SDS011;27405;53.316;-6.294;2023-01-16T11:55:21;10.27;;;3.25;;
41719;SDS011;27405;53.316;-6.294;2023-01-16T11:58:12;8.45;;;2.15;;
41719;SDS011;27405;53.316;-6.294;2023-01-16T12:00:52;7.97;;;2.83;;
41719;SDS011;27405;53.316;-6.294;2023-01-16T12:06:47;8.45;;;2.38;;
41719;SDS011;27405;53.316;-6.294;2023-01-16T12:15:21;10.30;;;2.92;;
41719;SDS011;27405;53.316;-6.294;2023-01-16T12:20:34;8.95;;;3.30;;
41719;SDS011;27405;53.316;-6.294;2023-01-16T12:23:17;13.85;;;3.38;;
41719;SDS011;27405;53.316;-6.294;2023-01-16T13:02:10;10.10;;;2.45;;
41719;SDS011;27405;53.316;-6.294;2023-01-16T13:05:31;11.40;;;2.80;;
41719;SDS011;27405;53.316;-6.294;2023-01-16T13:10:32;10.65;;;2.55;;
41719;SDS011;27405;53.316;-6.294;2023-01-16T13:13:27;12.88;;;3.50;;
41719;SDS011;27405;53.316;-6.294;2023-01-16T13:16:00;13.57;;;3.60;;
41719;SDS011;27405;53.316;-6.294;2023-01-16T13:18:44;12.18;;;3.25;;
41719;SDS011;27405;53.316;-6.294;2023-01-16T13:21:32;11.70;;;2.47;;
41719;SDS011;27405;53.316;-6.294;2023-01-16T13:24:10;8.88;;;2.80;;
41719;SDS011;27405;53.316;-6.294;2023-01-16T13:26:42;9.98;;;2.15;;
41719;SDS011;27405;53.316;-6.294;2023-01-16T13:29:16;10.93;;;3.30;;
41719;SDS011;27405;53.316;-6.294;2023-01-16T13:31:49;13.02;;;3.00;;
41719;SDS011;27405;53.316;-6.294;2023-01-16T13:34:38;12.70;;;3.22;;
41719;SDS011;27405;53.316;-6.294;2023-01-16T13:39:59;13.73;;;3.75;;
41719;SDS011;27405;53.316;-6.294;2023-01-16T13:42:39;15.80;;;2.90;;
41719;SDS011;27405;53.316;-6.294;2023-01-16T13:45:19;11.38;;;2.30;;
41719;SDS011;27405;53.316;-6.294;2023-01-16T13:48:31;10.25;;;2.75;;
41719;SDS011;27405;53.316;-6.294;2023-01-16T13:51:02;14.85;;;3.58;;
41719;SDS011;27405;53.316;-6.294;2023-01-16T13:53:35;15.90;;;2.80;;
41719;SDS011;27405;53.316;-6.294;2023-01-16T13:58:32;11.40;;;2.80;;
41719;SDS011;27405;53.316;-6.294;2023-01-16T14:01:03;10.23;;;2.75;;
41719;SDS011;27405;53.316;-6.294;2023-01-16T14:03:33;13.82;;;2.90;;
41719;SDS011;27405;53.316;-6.294;2023-01-16T14:06:35;14.02;;;3.40;;
41719;SDS011;27405;53.316;-6.294;2023-01-16T14:17:11;6.38;;;2.15;;
41719;SDS011;27405;53.316;-6.294;2023-01-16T14:19:38;9.63;;;2.67;;
41719;SDS011;27405;53.316;-6.294;2023-01-16T14:22:18;10.57;;;2.72;;
41719;SDS011;27405;53.316;-6.294;2023-01-16T14:24:55;19.58;;;3.25;;
41719;SDS011;27405;53.316;-6.294;2023-01-16T14:27:32;17.20;;;3.10;;
41719;SDS011;27405;53.316;-6.294;2023-01-16T14:30:16;9.23;;;3.47;;
41719;SDS011;27405;53.316;-6.294;2023-01-16T14:32:55;12.17;;;3.40;;
41719;SDS011;27405;53.316;-6.294;2023-01-16T14:35:26;9.85;;;3.35;;
41719;SDS011;27405;53.316;-6.294;2023-01-16T14:41:03;11.77;;;2.38;;
41719;SDS011;27405;53.316;-6.294;2023-01-16T14:44:02;11.98;;;3.08;;
41719;SDS011;27405;53.316;-6.294;2023-01-16T14:47:08;14.23;;;3.17;;
41719;SDS011;27405;53.316;-6.294;2023-01-16T14:55:57;11.45;;;3.75;;
41719;SDS011;27405;53.316;-6.294;2023-01-16T15:01:59;12.77;;;2.90;;
41719;SDS011;27405;53.316;-6.294;2023-01-16T15:16:09;24.15;;;6.72;;
41719;SDS011;27405;53.316;-6.294;2023-01-16T15:18:41;18.40;;;4.85;;
41719;SDS011;27405;53.316;-6.294;2023-01-16T15:21:26;20.17;;;5.18;;
41719;SDS011;27405;53.316;-6.294;2023-01-16T15:24:16;28.85;;;9.73;;
41719;SDS011;27405;53.316;-6.294;2023-01-16T15:32:02;19.80;;;4.78;;
41719;SDS011;27405;53.316;-6.294;2023-01-16T15:34:34;18.88;;;5.07;;
41719;SDS011;27405;53.316;-6.294;2023-01-16T15:37:00;18.65;;;4.90;;
41719;SDS011;27405;53.316;-6.294;2023-01-16T15:44:45;17.35;;;5.13;;
41719;SDS011;27405;53.316;-6.294;2023-01-16T15:50:50;23.90;;;6.20;;
41719;SDS011;27405;53.316;-6.294;2023-01-16T15:53:25;23.08;;;6.28;;
41719;SDS011;27405;53.316;-6.294;2023-01-16T15:56:05;18.25;;;5.95;;
41719;SDS011;27405;53.316;-6.294;2023-01-16T15:58:43;19.88;;;5.47;;
41719;SDS011;27405;53.316;-6.294;2023-01-16T16:01:13;20.85;;;5.75;;
41719;SDS011;27405;53.316;-6.294;2023-01-16T16:03:41;22.40;;;5.85;;
41719;SDS011;27405;53.316;-6.294;2023-01-16T16:06:10;21.05;;;6.53;;
41719;SDS011;27405;53.316;-6.294;2023-01-16T16:08:39;25.85;;;7.30;;
41719;SDS011;27405;53.316;-6.294;2023-01-16T16:11:20;24.35;;;9.85;;
41719;SDS011;27405;53.316;-6.294;2023-01-16T16:14:10;21.48;;;8.65;;
41719;SDS011;27405;53.316;-6.294;2023-01-16T16:20:24;22.92;;;6.78;;
41719;SDS011;27405;53.316;-6.294;2023-01-16T16:22:52;17.73;;;5.43;;
41719;SDS011;27405;53.316;-6.294;2023-01-16T16:25:26;22.40;;;6.65;;
41719;SDS011;27405;53.316;-6.294;2023-01-16T16:27:53;21.00;;;6.80;;
41719;SDS011;27405;53.316;-6.294;2023-01-16T16:30:26;21.77;;;6.88;;
41719;SDS011;27405;53.316;-6.294;2023-01-16T16:32:52;20.63;;;6.35;;
41719;SDS011;27405;53.316;-6.294;2023-01-16T16:35:21;17.67;;;6.53;;
41719;SDS011;27405;53.316;-6.294;2023-01-16T16:37:53;19.17;;;6.78;;
41719;SDS011;27405;53.316;-6.294;2023-01-16T16:40:19;22.40;;;7.57;;
41719;SDS011;27405;53.316;-6.294;2023-01-16T16:42:52;25.70;;;7.47;;
41719;SDS011;27405;53.316;-6.294;2023-01-16T16:50:40;38.53;;;17.15;;
41719;SDS011;27405;53.316;-6.294;2023-01-16T16:53:16;39.88;;;16.13;;
41719;SDS011;27405;53.316;-6.294;2023-01-16T16:55:53;41.75;;;20.63;;
41719;SDS011;27405;53.316;-6.294;2023-01-16T16:58:44;37.35;;;18.67;;
41719;SDS011;27405;53.316;-6.294;2023-01-16T17:01:12;38.90;;;16.75;;
41719;SDS011;27405;53.316;-6.294;2023-01-16T17:03:40;30.40;;;13.40;;
41719;SDS011;27405;53.316;-6.294;2023-01-16T17:06:12;27.77;;;10.10;;
41719;SDS011;27405;53.316;-6.294;2023-01-16T17:08:43;34.03;;;12.23;;
41719;SDS011;27405;53.316;-6.294;2023-01-16T17:11:12;36.10;;;15.82;;
41719;SDS011;27405;53.316;-6.294;2023-01-16T17:13:39;39.33;;;16.85;;
41719;SDS011;27405;53.316;-6.294;2023-01-16T17:16:10;31.55;;;15.98;;
41719;SDS011;27405;53.316;-6.294;2023-01-16T17:18:52;31.30;;;14.05;;
41719;SDS011;27405;53.316;-6.294;2023-01-16T17:21:27;24.27;;;9.70;;
41719;SDS011;27405;53.316;-6.294;2023-01-16T17:23:53;24.23;;;9.73;;
41719;SDS011;27405;53.316;-6.294;2023-01-16T17:26:18;23.95;;;10.75;;
41719;SDS011;27405;53.316;-6.294;2023-01-16T17:28:44;25.30;;;8.80;;
41719;SDS011;27405;53.316;-6.294;2023-01-16T17:31:13;22.88;;;8.93;;
41719;SDS011;27405;53.316;-6.294;2023-01-16T17:33:44;24.15;;;8.32;;
41719;SDS011;27405;53.316;-6.294;2023-01-16T17:36:28;21.10;;;9.00;;
41719;SDS011;27405;53.316;-6.294;2023-01-16T17:38:54;24.15;;;9.60;;
41719;SDS011;27405;53.316;-6.294;2023-01-16T17:41:23;24.95;;;9.60;;
41719;SDS011;27405;53.316;-6.294;2023-01-16T17:43:55;27.45;;;9.38;;
41719;SDS011;27405;53.316;-6.294;2023-01-16T17:46:40;20.95;;;9.45;;
41719;SDS011;27405;53.316;-6.294;2023-01-16T17:49:05;26.15;;;9.88;;
41719;SDS011;27405;53.316;-6.294;2023-01-16T17:51:31;37.25;;;16.90;;
41719;SDS011;27405;53.316;-6.294;2023-01-16T17:53:57;37.60;;;16.88;;
41719;SDS011;27405;53.316;-6.294;2023-01-16T17:56:23;32.10;;;12.88;;
41719;SDS011;27405;53.316;-6.294;2023-01-16T17:58:49;42.42;;;15.43;;
41719;SDS011;27405;53.316;-6.294;2023-01-16T18:01:23;41.15;;;16.52;;
41719;SDS011;27405;53.316;-6.294;2023-01-16T18:03:55;47.13;;;20.73;;